• +62 31 8667540

  • +62 31 8668989 (24 jam)

  • Stasiun Meteorologi Juanda

  • Bandar Udara Juanda - Sidoarjo

  • 08:00 - 16:00

  • Senin sampai Jumat

METAR 3 JAM TERAKHIR

Data at: 1544 UTC 21 Aug 2017

WARR 211530Z 20003KT 120V240 7000 FEW020 25/21 Q1010 NOSIG
WARR 211500Z 12004KT 080V150 7000 FEW020 26/20 Q1010 NOSIG
WARR 211430Z 12006KT 7000 FEW020 26/20 Q1010 NOSIG
WARR 211400Z 14005KT 110V180 7000 FEW020 27/21 Q1010 NOSIG
WARR 211330Z 13009KT 7000 FEW020 27/22 Q1010 NOSIG
WARR 211300Z 13009KT 8000 FEW020 27/22 Q1010 NOSIG

Peringatan Dini Cuaca Hari Ini

Waspadai Ketinggian Gelombang mencapai 3.0 meter di Perairan Selatan Jawa Timur dan Laut Jawa bagian Timur, serta Ketinggian Gelombang mencapai 2.5 meter di Perairan Kepulauan Masalembu, Perairan Pulau Bawean dan Perairan Kepulauan Kangean.